Time;durP1;ratioP1;P1;durP2;ratioP2;P2;SDS_P1;SDS_P2;PMS_P1;PMS_P2;Temp;Humidity;BMP_temperature;BMP_pressure;BME280_temperature;BME280_humidity;BME280_pressure;Samples;Min_cycle;Max_cycle;Signal;HPM_P1;HPM_P2
2023/12/05 00:00:49;;;;;;;;;0.00;0.00;;;;;9.63;100.00;99664.50;6337726;22;48827;-87
2023/12/05 00:03:14;;;;;;;;;0.00;0.00;;;;;9.56;100.00;99664.81;6336824;22;54446;-87
2023/12/05 00:05:39;;;;;;;;;0.00;0.00;;;;;9.50;100.00;99669.34;6336262;22;50260;-89
2023/12/05 00:08:05;;;;;;;;;0.00;0.00;;;;;9.51;100.00;99667.63;6335843;22;54637;-89
2023/12/05 00:10:30;;;;;;;;;0.00;0.00;;;;;9.56;100.00;99667.41;6310523;22;45369;-90
2023/12/05 00:12:56;;;;;;;;;0.00;0.00;;;;;9.56;100.00;99670.84;6336947;22;45376;-88
2023/12/05 00:15:21;;;;;;;;;0.00;0.00;;;;;9.53;100.00;99663.19;6336687;22;48969;-89
2023/12/05 00:17:47;;;;;;;;;0.00;0.00;;;;;9.52;100.00;99658.91;6336644;22;45352;-88
2023/12/05 00:20:12;;;;;;;;;0.00;0.00;;;;;9.53;100.00;99651.94;6310277;22;48634;-87
2023/12/05 00:22:37;;;;;;;;;0.00;0.00;;;;;9.55;100.00;99669.19;6310443;22;45365;-88
2023/12/05 00:25:04;;;;;;;;;0.00;0.00;;;;;9.54;100.00;99675.25;6308323;22;70499;-86
2023/12/05 00:27:29;;;;;;;;;0.00;0.00;;;;;9.55;100.00;99663.97;6362344;22;45798;-87
2023/12/05 00:29:54;;;;;;;;;0.00;0.00;;;;;9.56;100.00;99667.41;6336010;22;52052;-87
2023/12/05 00:32:20;;;;;;;;;0.00;0.00;;;;;9.48;100.00;99665.97;6337863;22;45321;-88
2023/12/05 00:34:46;;;;;;;;;0.00;0.00;;;;;9.55;100.00;99676.13;6336454;22;46249;-88
2023/12/05 00:37:11;;;;;;;;;0.00;0.00;;;;;9.51;100.00;99665.03;6336810;22;45251;-87
2023/12/05 00:39:36;;;;;;;;;0.00;0.00;;;;;9.55;100.00;99676.13;6336911;22;45206;-88
2023/12/05 00:42:02;;;;;;;;;0.00;0.00;;;;;9.54;100.00;99664.03;6336178;22;45514;-88
2023/12/05 00:44:27;;;;;;;;;0.00;0.00;;;;;9.52;100.00;99666.69;6338001;22;47111;-88
2023/12/05 00:46:52;;;;;;;;;0.00;0.00;;;;;9.49;100.00;99680.66;6309803;22;51973;-87
2023/12/05 00:49:18;;;;;;;;;0.00;0.00;;;;;9.55;100.00;99670.94;6309191;22;55151;-88
2023/12/05 00:51:44;;;;;;;;;0.00;0.00;;;;;9.50;100.00;99661.56;6335959;22;45349;-88
2023/12/05 00:54:09;;;;;;;;;0.00;0.00;;;;;9.51;100.00;99670.22;6309272;22;53113;-88
2023/12/05 00:56:34;;;;;;;;;0.00;0.00;;;;;9.54;100.00;99679.63;6337683;22;49581;-87
2023/12/05 00:59:00;;;;;;;;;0.00;0.00;;;;;9.51;100.00;99675.41;6308984;22;62506;-87
2023/12/05 01:01:25;;;;;;;;;0.00;0.00;;;;;9.53;100.00;99676.19;6309690;22;45512;-87
2023/12/05 01:03:56;;;;;;;;;0.00;0.00;;;;;9.50;100.00;99684.09;6335725;22;66691;-87
2023/12/05 01:06:24;;;;;;;;;0.00;0.00;;;;;9.52;100.00;99684.03;6336054;22;45271;-88
2023/12/05 01:08:50;;;;;;;;;0.00;0.00;;;;;9.54;100.00;99687.41;6309284;22;45244;-88
2023/12/05 01:11:16;;;;;;;;;0.00;0.00;;;;;9.47;100.00;99686.81;6309589;22;49947;-89
2023/12/05 01:13:43;;;;;;;;;0.00;0.00;;;;;9.49;100.00;99687.63;6310149;22;47149;-88
2023/12/05 01:16:09;;;;;;;;;0.00;0.00;;;;;9.56;100.00;99686.44;6336228;22;45455;-87
2023/12/05 01:18:34;;;;;;;;;0.00;0.00;;;;;9.47;100.00;99682.47;6335934;22;45544;-88
2023/12/05 01:20:59;;;;;;;;;0.00;0.00;;;;;9.52;100.00;99690.06;6309552;22;45623;-87
2023/12/05 01:23:25;;;;;;;;;0.00;0.00;;;;;9.49;100.00;99688.47;6337476;22;45496;-88
2023/12/05 01:25:50;;;;;;;;;0.00;0.00;;;;;9.58;100.00;99702.81;6334808;22;63611;-87
2023/12/05 01:28:15;;;;;;;;;0.00;0.00;;;;;9.53;100.00;99704.75;6335755;22;53554;-88
2023/12/05 01:30:41;;;;;;;;;0.00;0.00;;;;;9.47;100.00;99708.47;6335939;22;45177;-88
2023/12/05 01:33:32;;;;;;;;;0.00;0.00;;;;;9.53;100.00;99696.09;6310228;22;47036;-91
2023/12/05 01:35:57;;;;;;;;;0.00;0.00;;;;;9.45;100.00;99704.22;6341412;22;45260;-87
2023/12/05 01:38:23;;;;;;;;;0.00;0.00;;;;;9.44;100.00;99703.38;6335605;22;55007;-88
2023/12/05 01:40:48;;;;;;;;;0.00;0.00;;;;;9.35;100.00;99716.75;6308854;22;60148;-86
2023/12/05 01:43:13;;;;;;;;;0.00;0.00;;;;;9.39;100.00;99717.47;6334538;22;66032;-88
2023/12/05 01:45:39;;;;;;;;;0.00;0.00;;;;;9.38;100.00;99719.22;6308667;22;45509;-88
2023/12/05 01:48:05;;;;;;;;;0.00;0.00;;;;;9.36;100.00;99718.44;6335350;22;48819;-87
2023/12/05 01:50:31;;;;;;;;;0.00;0.00;;;;;9.33;100.00;99718.56;6335866;22;48926;-88
2023/12/05 01:52:58;;;;;;;;;0.00;0.00;;;;;9.30;100.00;99724.72;6335269;22;47095;-87
2023/12/05 01:55:26;;;;;;;;;0.00;0.00;;;;;9.27;100.00;99714.44;6335570;22;45241;-87
2023/12/05 01:57:52;;;;;;;;;0.00;0.00;;;;;9.23;100.00;99725.88;6336059;22;45401;-87
2023/12/05 02:00:18;;;;;;;;;0.00;0.00;;;;;9.09;100.00;99718.59;6308446;22;64656;-88
2023/12/05 02:02:50;;;;;;;;;0.00;0.00;;;;;8.96;100.00;99727.78;6335044;22;47422;-85
2023/12/05 02:05:21;;;;;;;;;0.00;0.00;;;;;8.90;100.00;99726.28;6335065;22;46006;-85
2023/12/05 02:07:47;;;;;;;;;0.00;0.00;;;;;8.81;100.00;99721.44;6334970;22;45430;-85
2023/12/05 02:10:12;;;;;;;;;0.00;0.00;;;;;8.81;100.00;99733.56;6307951;22;67209;-85
2023/12/05 02:12:40;;;;;;;;;0.00;0.00;;;;;8.75;100.00;99746.75;6307752;22;67234;-86
2023/12/05 02:15:07;;;;;;;;;0.00;0.00;;;;;8.74;100.00;99750.25;6334835;22;45330;-85
2023/12/05 02:17:52;;;;;;;;;0.00;0.00;;;;;8.59;100.00;99757.69;6309354;22;45270;-85
2023/12/05 02:20:40;;;;;;;;;0.00;0.00;;;;;8.54;100.00;99759.59;6337816;22;45302;-85
2023/12/05 02:23:32;;;;;;;;;0.00;0.00;;;;;8.33;100.00;99759.44;6333712;22;46357;-85
2023/12/05 02:25:57;;;;;;;;;0.00;0.00;;;;;8.27;100.00;99775.22;6335232;22;45261;-85
2023/12/05 02:28:24;;;;;;;;;0.00;0.00;;;;;8.17;100.00;99768.66;6334700;22;45222;-85
2023/12/05 02:30:49;;;;;;;;;0.00;0.00;;;;;8.11;100.00;99779.22;6335689;22;45304;-86
2023/12/05 02:33:15;;;;;;;;;0.00;0.00;;;;;8.10;100.00;99768.03;6337015;22;46283;-86
2023/12/05 02:35:40;;;;;;;;;0.00;0.00;;;;;8.04;100.00;99768.25;6307863;22;58602;-85
2023/12/05 02:38:24;;;;;;;;;0.00;0.00;;;;;8.01;100.00;99783.06;6335641;22;45232;-85
2023/12/05 02:41:03;;;;;;;;;0.00;0.00;;;;;7.94;100.00;99785.00;6335498;22;45330;-85
2023/12/05 02:43:33;;;;;;;;;0.00;0.00;;;;;7.87;100.00;99784.34;6334824;22;48139;-85
2023/12/05 02:46:00;;;;;;;;;0.00;0.00;;;;;7.80;100.00;99787.19;6334857;22;45242;-85
2023/12/05 02:48:26;;;;;;;;;0.00;0.00;;;;;7.77;100.00;99771.75;6335343;22;45399;-86
2023/12/05 02:50:52;;;;;;;;;0.00;0.00;;;;;7.70;100.00;99782.28;6334267;22;53396;-87
2023/12/05 02:53:18;;;;;;;;;0.00;0.00;;;;;7.66;100.00;99772.94;6334831;22;47126;-84
2023/12/05 02:55:43;;;;;;;;;0.00;0.00;;;;;7.63;100.00;99785.13;6334280;22;57463;-83
2023/12/05 02:58:09;;;;;;;;;0.00;0.00;;;;;7.55;100.00;99785.38;6336099;22;45514;-83
2023/12/05 03:00:34;;;;;;;;;0.00;0.00;;;;;7.45;100.00;99774.47;6336608;22;45482;-85
2023/12/05 03:02:59;;;;;;;;;0.00;0.00;;;;;7.40;100.00;99778.09;6334233;22;48110;-84
2023/12/05 03:05:25;;;;;;;;;0.00;0.00;;;;;7.42;100.00;99773.72;6333480;22;68117;-83
2023/12/05 03:07:50;;;;;;;;;0.00;0.00;;;;;7.43;100.00;99768.50;6335623;22;46397;-82
2023/12/05 03:10:15;;;;;;;;;0.00;0.00;;;;;7.44;100.00;99774.53;6334101;22;61465;-82
2023/12/05 03:12:41;;;;;;;;;0.00;0.00;;;;;7.42;100.00;99759.03;6332916;22;73854;-82
2023/12/05 03:15:06;;;;;;;;;0.00;0.00;;;;;7.50;100.00;99772.59;6333376;22;73660;-83
2023/12/05 03:17:32;;;;;;;;;0.00;0.00;;;;;7.44;100.00;99759.81;6335974;22;45305;-83
2023/12/05 03:19:57;;;;;;;;;0.00;0.00;;;;;7.36;100.00;99762.66;6336195;22;45281;-84
2023/12/05 03:22:23;;;;;;;;;0.00;0.00;;;;;7.31;100.00;99766.28;6335187;22;47031;-85
2023/12/05 03:24:50;;;;;;;;;0.00;0.00;;;;;7.25;100.00;99763.91;6335683;22;71449;-84
2023/12/05 03:27:15;;;;;;;;;0.00;0.00;;;;;7.25;100.00;99771.66;6343042;22;45484;-84
2023/12/05 03:29:40;;;;;;;;;0.00;0.00;;;;;7.20;100.00;99763.19;6341631;22;44879;-83
2023/12/05 03:32:06;;;;;;;;;0.00;0.00;;;;;7.23;100.00;99774.28;6344723;22;66474;-83
2023/12/05 03:34:31;;;;;;;;;0.00;0.00;;;;;13.20;100.00;99781.09;6346315;22;53971;-84
2023/12/05 03:36:56;;;;;;;;;0.00;0.00;;;;;8.62;100.00;99795.66;6349836;22;56363;-85
2023/12/05 03:39:22;;;;;;;;;0.00;0.00;;;;;7.83;100.00;99779.31;6344422;22;62995;-81
2023/12/05 03:41:47;;;;;;;;;0.00;0.00;;;;;7.70;100.00;99774.53;6344880;22;45476;-83
2023/12/05 03:44:13;;;;;;;;;0.00;0.00;;;;;7.59;100.00;99775.78;6343144;22;63496;-82
2023/12/05 03:46:38;;;;;;;;;0.00;0.00;;;;;7.57;100.00;99775.81;6350054;22;45150;-84
2023/12/05 03:49:03;;;;;;;;;0.00;0.00;;;;;8.57;100.00;99787.19;6348455;22;54772;-83
2023/12/05 03:51:30;;;;;;;;;0.00;0.00;;;;;7.98;100.00;99788.31;6348263;22;45585;-83
2023/12/05 03:53:55;;;;;;;;;0.00;0.00;;;;;7.82;100.00;99788.84;6348095;22;45246;-83
2023/12/05 03:56:20;;;;;;;;;0.00;0.00;;;;;7.80;100.00;99800.13;6344625;22;45424;-83
2023/12/05 03:58:46;;;;;;;;;0.00;0.00;;;;;7.69;100.00;99798.75;6341220;22;70898;-83
2023/12/05 04:01:11;;;;;;;;;0.00;0.00;;;;;7.73;100.00;99807.28;6338930;22;45375;-83
2023/12/05 04:03:37;;;;;;;;;0.00;0.00;;;;;7.86;100.00;99812.91;6309976;22;73498;-83
2023/12/05 04:06:03;;;;;;;;;0.00;0.00;;;;;7.87;100.00;99817.19;6337064;22;45281;-83
2023/12/05 04:08:28;;;;;;;;;0.00;0.00;;;;;7.86;100.00;99813.75;6338016;22;45307;-84
2023/12/05 04:10:54;;;;;;;;;0.00;0.00;;;;;7.95;100.00;99830.75;6336478;22;54361;-83
2023/12/05 04:13:19;;;;;;;;;0.00;0.00;;;;;7.96;100.00;99829.84;6335471;22;64303;-83
2023/12/05 04:15:44;;;;;;;;;0.00;0.00;;;;;7.95;100.00;99841.94;6310182;22;45345;-84
2023/12/05 04:18:10;;;;;;;;;0.00;0.00;;;;;7.95;100.00;99841.94;6337438;22;45333;-82
2023/12/05 04:20:36;;;;;;;;;0.00;0.00;;;;;7.95;100.00;99854.91;6335344;22;48208;-82
2023/12/05 04:23:01;;;;;;;;;0.00;0.00;;;;;8.00;100.00;99853.91;6338308;22;45303;-82
2023/12/05 04:25:27;;;;;;;;;0.00;0.00;;;;;8.06;100.00;99864.06;6338297;22;45234;-82
2023/12/05 04:27:52;;;;;;;;;0.00;0.00;;;;;8.03;100.00;99875.38;6337381;22;50504;-84
2023/12/05 04:30:17;;;;;;;;;0.00;0.00;;;;;8.10;100.00;99879.47;6339020;22;46947;-83
2023/12/05 04:32:43;;;;;;;;;0.00;0.00;;;;;8.09;100.00;99880.38;6336980;22;45363;-83
2023/12/05 04:35:08;;;;;;;;;0.00;0.00;;;;;8.11;100.00;99877.72;6308089;22;69106;-84
2023/12/05 04:37:34;;;;;;;;;0.00;0.00;;;;;8.07;100.00;99882.16;6308890;22;45406;-84
2023/12/05 04:39:59;;;;;;;;;0.00;0.00;;;;;8.05;100.00;99881.38;6333792;22;75492;-83
2023/12/05 04:42:24;;;;;;;;;0.00;0.00;;;;;8.05;100.00;99891.75;6335101;22;45352;-84
2023/12/05 04:44:50;;;;;;;;;0.00;0.00;;;;;8.13;100.00;99896.66;6334623;22;47773;-84
2023/12/05 04:47:15;;;;;;;;;0.00;0.00;;;;;8.08;100.00;99891.66;6335406;22;61587;-84
2023/12/05 04:49:40;;;;;;;;;0.00;0.00;;;;;8.08;100.00;99903.78;6307610;22;75222;-84
2023/12/05 04:52:06;;;;;;;;;0.00;0.00;;;;;8.13;100.00;99909.63;6307797;22;73231;-83
2023/12/05 04:54:31;;;;;;;;;0.00;0.00;;;;;8.14;100.00;99906.16;6335384;22;45411;-84
2023/12/05 04:56:56;;;;;;;;;0.00;0.00;;;;;8.09;100.00;99908.88;6335231;22;61774;-84
2023/12/05 04:59:22;;;;;;;;;0.00;0.00;;;;;8.09;100.00;99902.84;6336424;22;50386;-84
2023/12/05 05:01:47;;;;;;;;;0.00;0.00;;;;;8.12;100.00;99921.75;6336705;22;45252;-85
2023/12/05 05:04:13;;;;;;;;;0.00;0.00;;;;;8.12;100.00;99915.72;6335779;22;45395;-83
2023/12/05 05:06:38;;;;;;;;;0.00;0.00;;;;;8.04;100.00;99917.69;6334326;22;69565;-85
2023/12/05 05:09:04;;;;;;;;;0.00;0.00;;;;;8.01;100.00;99917.81;6335572;22;75524;-85
2023/12/05 05:11:29;;;;;;;;;0.00;0.00;;;;;8.00;100.00;99919.53;6360311;22;45290;-83
2023/12/05 05:13:57;;;;;;;;;0.00;0.00;;;;;8.10;100.00;99920.13;6308399;22;60445;-85
2023/12/05 05:16:22;;;;;;;;;0.00;0.00;;;;;8.25;100.00;99930.00;6335699;22;63601;-84
2023/12/05 05:18:47;;;;;;;;;0.00;0.00;;;;;8.25;100.00;99934.34;6334973;22;62141;-83
2023/12/05 05:21:13;;;;;;;;;0.00;0.00;;;;;8.23;100.00;99938.72;6307776;22;68654;-84
2023/12/05 05:23:40;;;;;;;;;0.00;0.00;;;;;8.12;100.00;99942.50;6334445;22;69200;-84
2023/12/05 05:26:07;;;;;;;;;0.00;0.00;;;;;8.13;100.00;99945.94;6335492;22;45500;-84
2023/12/05 05:28:33;;;;;;;;;0.00;0.00;;;;;8.11;100.00;99952.91;6308957;22;47464;-84
2023/12/05 05:31:10;;;;;;;;;;;;;;;;;;;;;
2023/12/05 05:33:43;;;;;;;;;0.00;0.00;;;;;8.10;100.00;99966.78;6328746;22;69220;-85
2023/12/05 05:36:15;;;;;;;;;0.00;0.00;;;;;8.02;100.00;99959.22;6337133;22;45391;-85
2023/12/05 05:38:40;;;;;;;;;0.00;0.00;;;;;8.10;100.00;99956.41;6336392;22;58318;-84
2023/12/05 05:41:06;;;;;;;;;0.00;0.00;;;;;8.15;100.00;99972.66;6337113;22;45380;-84
2023/12/05 05:43:32;;;;;;;;;0.00;0.00;;;;;8.16;100.00;99961.41;6335575;22;45342;-84
2023/12/05 05:46:00;;;;;;;;;0.00;0.00;;;;;8.18;100.00;99975.16;6336661;22;45272;-85
2023/12/05 05:48:25;;;;;;;;;0.00;0.00;;;;;8.19;100.00;99974.28;6336957;22;47488;-84
2023/12/05 05:50:51;;;;;;;;;0.00;0.00;;;;;8.15;100.00;99975.25;6335690;22;45186;-84
2023/12/05 05:53:16;;;;;;;;;0.00;0.00;;;;;8.16;100.00;99983.88;6336765;22;45556;-84
2023/12/05 05:55:42;;;;;;;;;0.00;0.00;;;;;8.16;100.00;99991.66;6335317;22;45572;-84
2023/12/05 05:58:10;;;;;;;;;0.00;0.00;;;;;8.14;100.00;99982.19;6334935;22;47455;-86
2023/12/05 06:00:39;;;;;;;;;0.00;0.00;;;;;8.16;100.00;99995.09;6336420;22;45403;-84
2023/12/05 06:03:04;;;;;;;;;0.00;0.00;;;;;8.15;100.00;99998.56;6334658;22;58082;-85
2023/12/05 06:05:30;;;;;;;;;0.00;0.00;;;;;8.13;100.00;99998.63;6335748;22;70324;-85
2023/12/05 06:07:55;;;;;;;;;0.00;0.00;;;;;8.10;100.00;100003.06;6334360;22;70439;-87
2023/12/05 06:10:21;;;;;;;;;0.00;0.00;;;;;8.23;100.00;100011.31;6334947;22;45296;-85
2023/12/05 06:12:46;;;;;;;;;0.00;0.00;;;;;8.22;100.00;100014.78;6336025;22;45245;-86
2023/12/05 06:15:12;;;;;;;;;0.00;0.00;;;;;8.21;100.00;100016.56;6360966;22;45437;-85
2023/12/05 06:17:37;;;;;;;;;0.00;0.00;;;;;8.13;100.00;100016.78;6361563;22;47967;-86
2023/12/05 06:20:05;;;;;;;;;0.00;0.00;;;;;8.21;100.00;100026.03;6335323;22;45708;-86
2023/12/05 06:22:30;;;;;;;;;0.00;0.00;;;;;8.20;100.00;100032.16;6335475;22;45281;-87
2023/12/05 06:24:56;;;;;;;;;0.00;0.00;;;;;8.28;100.00;100033.63;6335702;22;45447;-86
2023/12/05 06:27:21;;;;;;;;;0.00;0.00;;;;;8.25;100.00;100027.69;6335218;22;45376;-87
2023/12/05 06:29:46;;;;;;;;;0.00;0.00;;;;;8.34;100.00;100048.13;6308157;22;45685;-87
2023/12/05 06:32:12;;;;;;;;;0.00;0.00;;;;;8.37;100.00;100047.19;6335132;22;47553;-86
2023/12/05 06:34:37;;;;;;;;;0.00;0.00;;;;;8.34;100.00;100043.78;6307357;22;56530;-86
2023/12/05 06:37:02;;;;;;;;;0.00;0.00;;;;;8.33;100.00;100046.44;6334740;22;65205;-88
2023/12/05 06:39:28;;;;;;;;;0.00;0.00;;;;;8.31;100.00;100051.66;6336498;22;45363;-88
2023/12/05 06:41:53;;;;;;;;;0.00;0.00;;;;;8.37;100.00;100062.75;6336574;22;45350;-83
2023/12/05 06:44:22;;;;;;;;;0.00;0.00;;;;;8.33;100.00;100072.34;6336026;22;64577;-92
2023/12/05 06:46:47;;;;;;;;;0.00;0.00;;;;;8.39;100.00;100068.72;6334982;22;57958;-88
2023/12/05 06:49:12;;;;;;;;;0.00;0.00;;;;;8.41;100.00;100072.13;6336864;22;48564;-84
2023/12/05 06:51:39;;;;;;;;;0.00;0.00;;;;;8.34;100.00;100068.88;6336820;22;45306;-88
2023/12/05 06:54:04;;;;;;;;;0.00;0.00;;;;;8.32;100.00;100073.25;6336762;22;45459;-86
2023/12/05 06:56:30;;;;;;;;;0.00;0.00;;;;;8.29;100.00;100086.31;6307801;22;58477;-90
2023/12/05 06:58:56;;;;;;;;;0.00;0.00;;;;;8.23;100.00;100076.13;6335383;22;45283;-88
2023/12/05 07:01:21;;;;;;;;;0.00;0.00;;;;;8.28;100.00;100084.59;6335535;22;45462;-88
2023/12/05 07:03:47;;;;;;;;;0.00;0.00;;;;;8.30;100.00;100103.56;6336439;22;45338;-88
2023/12/05 07:06:12;;;;;;;;;0.00;0.00;;;;;8.23;100.00;100097.72;6335382;22;46306;-90
2023/12/05 07:08:37;;;;;;;;;0.00;0.00;;;;;8.33;100.00;100106.91;6308249;22;45400;-89
2023/12/05 07:11:03;;;;;;;;;0.00;0.00;;;;;8.35;100.00;100106.88;6307242;22;64302;-86
2023/12/05 07:13:28;;;;;;;;;0.00;0.00;;;;;8.35;100.00;100117.25;6335313;22;45253;-88
2023/12/05 07:15:54;;;;;;;;;0.00;0.00;;;;;8.23;100.00;100113.28;6335808;22;45292;-90
2023/12/05 07:18:22;;;;;;;;;0.00;0.00;;;;;8.27;100.00;100122.66;6335847;22;45466;-88
2023/12/05 07:20:48;;;;;;;;;0.00;0.00;;;;;8.25;100.00;100131.38;6335133;22;45300;-87
2023/12/05 07:23:13;;;;;;;;;0.00;0.00;;;;;8.25;100.00;100132.22;6334997;22;45395;-85
2023/12/05 07:25:38;;;;;;;;;0.00;0.00;;;;;8.31;100.00;100137.22;6334730;22;69139;-84
2023/12/05 07:28:04;;;;;;;;;0.00;0.00;;;;;8.26;100.00;100143.44;6306923;22;57456;-89
2023/12/05 07:30:29;;;;;;;;;0.00;0.00;;;;;8.23;100.00;100146.16;6331569;22;69038;-86
2023/12/05 07:32:54;;;;;;;;;0.00;0.00;;;;;8.24;100.00;100151.25;6333425;22;55912;-84
2023/12/05 07:35:20;;;;;;;;;0.00;0.00;;;;;8.26;100.00;100148.63;6306610;22;67406;-84
2023/12/05 07:37:45;;;;;;;;;0.00;0.00;;;;;8.25;100.00;100147.78;6333654;22;45304;-85
2023/12/05 07:40:10;;;;;;;;;0.00;0.00;;;;;8.25;100.00;100159.91;6333328;22;59835;-85
2023/12/05 07:42:36;;;;;;;;;0.00;0.00;;;;;8.29;100.00;100161.50;6331843;22;45861;-85
2023/12/05 07:45:02;;;;;;;;;0.00;0.00;;;;;8.28;100.00;100165.00;6326818;22;46169;-86
2023/12/05 07:47:27;;;;;;;;;0.00;0.00;;;;;8.28;100.00;100167.56;6332597;22;45419;-84
2023/12/05 07:49:53;;;;;;;;;0.00;0.00;;;;;8.22;100.00;100165.16;6333957;22;45338;-85
2023/12/05 07:52:18;;;;;;;;;0.00;0.00;;;;;8.25;100.00;100173.72;6332789;22;45587;-83
2023/12/05 07:54:43;;;;;;;;;0.00;0.00;;;;;8.29;100.00;100175.31;6333119;22;46052;-84
2023/12/05 07:57:09;;;;;;;;;0.00;0.00;;;;;8.27;100.00;100191.81;6333121;22;70922;-84
2023/12/05 07:59:34;;;;;;;;;0.00;0.00;;;;;8.30;100.00;100182.22;6335623;22;45280;-84
2023/12/05 08:02:00;;;;;;;;;0.00;0.00;;;;;8.24;100.00;100194.50;6333765;22;45385;-85
2023/12/05 08:04:25;;;;;;;;;0.00;0.00;;;;;8.29;100.00;100192.63;6333487;22;47037;-85
2023/12/05 08:06:51;;;;;;;;;0.00;0.00;;;;;8.41;100.00;100197.44;6306822;22;54001;-84
2023/12/05 08:09:16;;;;;;;;;0.00;0.00;;;;;8.44;100.00;100192.22;6333336;22;45422;-85
2023/12/05 08:11:42;;;;;;;;;0.00;0.00;;;;;8.54;100.00;100205.75;6334457;22;45262;-85
2023/12/05 08:14:07;;;;;;;;;0.00;0.00;;;;;8.40;100.00;100211.31;6333782;22;46313;-85
2023/12/05 08:16:32;;;;;;;;;0.00;0.00;;;;;8.40;100.00;100210.50;6334590;22;45601;-85
2023/12/05 08:18:58;;;;;;;;;0.00;0.00;;;;;8.39;100.00;100206.19;6333848;22;45277;-85
2023/12/05 08:21:23;;;;;;;;;0.67;0.67;;;;;8.39;100.00;100213.97;6307819;22;50432;-87
2023/12/05 08:23:48;;;;;;;;;0.00;0.00;;;;;8.35;100.00;100220.97;6335582;22;46284;-84
2023/12/05 08:26:14;;;;;;;;;0.00;0.00;;;;;8.36;100.00;100216.63;6337362;22;46692;-87
2023/12/05 08:28:39;;;;;;;;;0.00;0.00;;;;;8.41;100.00;100225.13;6309341;22;45363;-87
2023/12/05 08:31:06;;;;;;;;;0.00;0.00;;;;;8.44;100.00;100231.13;6309313;22;47790;-86
2023/12/05 08:33:31;;;;;;;;;0.00;0.00;;;;;8.45;100.00;100226.78;6335835;22;45409;-87
2023/12/05 08:35:57;;;;;;;;;0.00;0.00;;;;;8.41;100.00;100232.91;6336895;22;45399;-85
2023/12/05 08:38:22;;;;;;;;;0.00;0.00;;;;;8.46;100.00;100226.75;6335059;22;45498;-85
2023/12/05 08:40:47;;;;;;;;;0.00;0.00;;;;;8.45;100.00;100229.38;6308019;22;70658;-85
2023/12/05 08:43:13;;;;;;;;;0.00;0.00;;;;;8.51;100.00;100239.59;6336027;22;63097;-85
2023/12/05 08:45:38;;;;;;;;;0.00;0.00;;;;;8.52;100.00;100246.47;6333742;22;59206;-87
2023/12/05 08:48:04;;;;;;;;;0.00;0.00;;;;;8.58;100.00;100258.41;6335360;22;53476;-87
2023/12/05 08:50:33;;;;;;;;;0.00;0.00;;;;;8.48;100.00;100263.84;6337761;22;45236;-88
2023/12/05 08:53:03;;;;;;;;;0.00;0.00;;;;;8.52;100.00;100260.31;6334985;22;46198;-88
2023/12/05 08:55:29;;;;;;;;;0.00;0.00;;;;;8.49;100.00;100255.19;6308728;22;59462;-86
2023/12/05 08:57:55;;;;;;;;;0.00;0.00;;;;;8.55;100.00;100264.56;6335448;22;45722;-86
2023/12/05 09:00:21;;;;;;;;;0.00;0.00;;;;;8.65;100.00;100270.31;6335439;22;45301;-85
2023/12/05 09:02:46;;;;;;;;;0.00;0.00;;;;;8.69;100.00;100278.00;6334185;22;72272;-85
2023/12/05 09:05:11;;;;;;;;;0.00;0.00;;;;;8.74;100.00;100277.84;6335248;22;45287;-86
2023/12/05 09:07:37;;;;;;;;;0.00;0.00;;;;;8.69;100.00;100278.00;6334858;22;49576;-86
2023/12/05 09:10:03;;;;;;;;;0.00;0.00;;;;;8.65;100.00;100284.13;6309531;22;45337;-89
2023/12/05 09:12:32;;;;;;;;;0.00;0.00;;;;;8.61;100.00;100285.13;6336971;22;46948;-89
2023/12/05 09:14:57;;;;;;;;;0.00;0.00;;;;;8.67;100.00;100284.97;6336729;22;45383;-86
2023/12/05 09:17:22;;;;;;;;;0.00;0.00;;;;;8.68;100.00;100297.03;6334895;22;63023;-86
2023/12/05 09:19:50;;;;;;;;;0.00;0.00;;;;;8.70;100.00;100297.00;6363013;22;45429;-88
2023/12/05 09:22:16;;;;;;;;;0.00;0.00;;;;;8.65;100.00;100296.25;6335330;22;46374;-88
2023/12/05 09:24:41;;;;;;;;;0.00;0.00;;;;;8.74;100.00;100300.34;6335681;22;45227;-85
2023/12/05 09:27:10;;;;;;;;;0.00;0.00;;;;;8.72;100.00;100303.00;6337688;22;45241;-88
2023/12/05 09:29:35;;;;;;;;;0.00;0.00;;;;;8.71;100.00;100302.16;6334731;22;48922;-86
2023/12/05 09:32:04;;;;;;;;;0.00;0.00;;;;;8.77;100.00;100319.28;6308132;22;64052;-89
2023/12/05 09:34:31;;;;;;;;;0.00;0.00;;;;;8.75;100.00;100309.81;6308924;22;45344;-87
2023/12/05 09:36:57;;;;;;;;;0.00;0.00;;;;;8.79;100.00;100319.25;6308715;22;45234;-88
2023/12/05 09:39:23;;;;;;;;;1.75;0.50;;;;;8.81;100.00;100325.25;6362120;22;45438;-89
2023/12/05 09:41:52;;;;;;;;;0.00;0.00;;;;;8.81;100.00;100312.25;6333306;22;47030;-86
2023/12/05 09:44:23;;;;;;;;;0.00;0.00;;;;;8.87;100.00;100335.44;6336367;22;45326;-86
2023/12/05 09:46:53;;;;;;;;;0.00;0.00;;;;;8.94;100.00;100334.38;6336693;22;45298;-86
2023/12/05 09:49:22;;;;;;;;;0.00;0.00;;;;;8.95;100.00;100340.41;6335411;22;45472;-86
2023/12/05 09:51:51;;;;;;;;;0.00;0.00;;;;;8.98;100.00;100343.78;6335276;22;47379;-86
2023/12/05 09:54:16;;;;;;;;;0.00;0.00;;;;;9.01;100.00;100345.44;6335672;22;45320;-87
2023/12/05 09:56:42;;;;;;;;;0.00;0.00;;;;;9.01;100.00;100354.09;6334405;22;45415;-86
2023/12/05 09:59:09;;;;;;;;;0.00;0.00;;;;;9.07;100.00;100346.09;6335504;22;45713;-85
2023/12/05 10:01:35;;;;;;;;;0.00;0.00;;;;;9.11;100.00;100355.50;6335237;22;48360;-86
2023/12/05 10:04:11;;;;;;;;;0.00;0.00;;;;;9.13;100.00;100357.22;6308711;22;45462;-90
2023/12/05 10:06:37;;;;;;;;;0.00;0.00;;;;;9.15;100.00;100356.25;6334020;22;45258;-85
2023/12/05 10:09:06;;;;;;;;;0.00;0.00;;;;;9.13;100.00;100358.06;6334964;22;45282;-86
2023/12/05 10:11:31;;;;;;;;;0.00;0.00;;;;;9.14;100.00;100367.56;6335557;22;46419;-88
2023/12/05 10:13:57;;;;;;;;;0.00;0.00;;;;;9.13;100.00;100365.84;6335090;22;49566;-86
2023/12/05 10:16:24;;;;;;;;;0.00;0.00;;;;;9.18;100.00;100373.53;6335283;22;45447;-86
2023/12/05 10:18:49;;;;;;;;;0.00;0.00;;;;;9.18;100.00;100376.97;6335317;22;45277;-86
2023/12/05 10:21:24;;;;;;;;;0.00;0.00;;;;;9.13;100.00;100380.59;6307873;22;62561;-90
2023/12/05 10:23:51;;;;;;;;;0.00;0.00;;;;;9.23;100.00;100384.59;6335323;22;45286;-86
2023/12/05 10:26:16;;;;;;;;;0.00;0.00;;;;;9.17;100.00;100387.38;6334742;22;45308;-86
2023/12/05 10:28:53;;;;;;;;;0.00;0.00;;;;;9.17;100.00;100398.63;6334493;22;50350;-87
2023/12/05 10:31:18;;;;;;;;;0.00;0.00;;;;;9.21;100.00;100395.06;6308500;22;47411;-84
2023/12/05 10:34:03;;;;;;;;;0.00;0.00;;;;;9.15;100.00;100391.78;6335565;22;45256;-88
2023/12/05 10:36:28;;;;;;;;;0.00;0.00;;;;;9.14;100.00;100395.25;6336059;22;45254;-85
2023/12/05 10:38:54;;;;;;;;;0.00;0.00;;;;;9.11;100.00;100389.25;6306873;22;57488;-85
2023/12/05 10:41:23;;;;;;;;;0.00;0.00;;;;;9.19;100.00;100396.81;6334191;22;45186;-85
2023/12/05 10:43:57;;;;;;;;;0.00;0.00;;;;;9.21;100.00;100397.66;6333494;22;45406;-85
2023/12/05 10:46:26;;;;;;;;;0.00;0.00;;;;;9.24;100.00;100405.34;6334068;22;45363;-85
2023/12/05 10:48:52;;;;;;;;;0.00;0.00;;;;;9.20;100.00;100413.28;6334137;22;45207;-84
2023/12/05 10:51:17;;;;;;;;;0.00;0.00;;;;;9.19;100.00;100407.22;6334533;22;47023;-87
2023/12/05 10:53:43;;;;;;;;;0.00;0.00;;;;;9.16;100.00;100406.47;6334430;22;45250;-85
2023/12/05 10:56:17;;;;;;;;;0.00;0.00;;;;;9.10;100.00;100413.53;6307533;22;50046;-87
2023/12/05 10:58:43;;;;;;;;;0.00;0.00;;;;;9.14;100.00;100422.09;6334807;22;45507;-85
2023/12/05 11:01:13;;;;;;;;;0.00;0.00;;;;;9.14;100.00;100424.69;6360820;22;47235;-85
2023/12/05 11:03:39;;;;;;;;;0.00;0.00;;;;;9.10;100.00;100418.72;6333396;22;45320;-86
2023/12/05 11:06:21;;;;;;;;;0.00;0.00;;;;;9.10;100.00;100423.06;6336477;22;45342;-96
2023/12/05 11:08:46;;;;;;;;;0.00;0.00;;;;;9.14;100.00;100429.88;6335720;22;45488;-88
2023/12/05 11:11:12;;;;;;;;;0.00;0.00;;;;;9.10;100.00;100425.66;6335475;22;45355;-89
2023/12/05 11:13:41;;;;;;;;;0.00;0.00;;;;;9.16;100.00;100432.44;6335243;22;45356;-88
2023/12/05 11:16:45;;;;;;;;;0.00;0.00;;;;;9.14;100.00;100426.41;6335553;22;45238;-90
2023/12/05 11:19:49;;;;;;;;;0.00;0.00;;;;;9.12;100.00;100436.88;6184916;22;45440;-92
2023/12/05 11:22:52;;;;;;;;;0.00;0.00;;;;;9.14;100.00;100442.00;6210155;22;46154;-90
2023/12/05 11:25:21;;;;;;;;;0.00;0.00;;;;;9.11;100.00;100441.19;6188051;22;45428;-89
2023/12/05 11:28:15;;;;;;;;;0.00;0.00;;;;;9.08;100.00;100437.81;6185169;22;45397;-88
2023/12/05 11:30:58;;;;;;;;;0.00;0.00;;;;;9.13;100.00;100443.75;6210357;22;45430;-90